sensor_id;sensor_type;location;lat;lon;timestamp;temperature;humidity
7034;DHT22;3558;53.176;10.412;2023-11-21T03:46:36;14.10;90.40
7034;DHT22;3558;53.176;10.412;2023-11-21T03:49:01;14.10;90.30
7034;DHT22;3558;53.176;10.412;2023-11-21T03:51:27;14.20;90.40
7034;DHT22;3558;53.176;10.412;2023-11-21T03:53:52;14.10;90.30
7034;DHT22;3558;53.176;10.412;2023-11-21T03:56:19;14.10;90.30
7034;DHT22;3558;53.176;10.412;2023-11-21T03:58:46;14.10;90.30
7034;DHT22;3558;53.176;10.412;2023-11-21T04:01:11;14.10;90.30
7034;DHT22;3558;53.176;10.412;2023-11-21T04:03:36;14.10;90.30
7034;DHT22;3558;53.176;10.412;2023-11-21T04:06:02;14.10;90.30
7034;DHT22;3558;53.176;10.412;2023-11-21T04:08:27;14.00;90.20
7034;DHT22;3558;53.176;10.412;2023-11-21T04:10:53;14.00;90.20
7034;DHT22;3558;53.176;10.412;2023-11-21T04:13:19;14.10;90.30
7034;DHT22;3558;53.176;10.412;2023-11-21T04:15:44;14.10;90.20
7034;DHT22;3558;53.176;10.412;2023-11-21T04:18:10;14.10;90.20
7034;DHT22;3558;53.176;10.412;2023-11-21T04:20:35;14.00;90.20
7034;DHT22;3558;53.176;10.412;2023-11-21T04:23:01;14.00;90.20
7034;DHT22;3558;53.176;10.412;2023-11-21T04:25:26;14.00;90.20
7034;DHT22;3558;53.176;10.412;2023-11-21T04:27:53;14.00;90.20
7034;DHT22;3558;53.176;10.412;2023-11-21T04:30:19;14.00;90.20
7034;DHT22;3558;53.176;10.412;2023-11-21T04:32:46;13.90;90.20
7034;DHT22;3558;53.176;10.412;2023-11-21T04:35:11;13.90;90.20
7034;DHT22;3558;53.176;10.412;2023-11-21T04:37:37;13.90;90.20
7034;DHT22;3558;53.176;10.412;2023-11-21T04:40:03;14.00;90.10
7034;DHT22;3558;53.176;10.412;2023-11-21T04:42:34;13.90;90.10
7034;DHT22;3558;53.176;10.412;2023-11-21T04:45:00;13.90;90.10
7034;DHT22;3558;53.176;10.412;2023-11-21T04:47:26;13.90;90.10
7034;DHT22;3558;53.176;10.412;2023-11-21T04:49:52;13.90;90.10
7034;DHT22;3558;53.176;10.412;2023-11-21T04:52:17;13.80;90.10
7034;DHT22;3558;53.176;10.412;2023-11-21T04:54:43;13.90;90.10
7034;DHT22;3558;53.176;10.412;2023-11-21T04:57:08;13.80;90.00
7034;DHT22;3558;53.176;10.412;2023-11-21T04:59:34;13.80;90.00
7034;DHT22;3558;53.176;10.412;2023-11-21T05:02:00;13.80;90.00
7034;DHT22;3558;53.176;10.412;2023-11-21T05:04:26;13.80;90.00
7034;DHT22;3558;53.176;10.412;2023-11-21T05:06:52;13.80;90.00
7034;DHT22;3558;53.176;10.412;2023-11-21T05:09:17;13.80;90.00
7034;DHT22;3558;53.176;10.412;2023-11-21T05:11:43;13.70;89.90
7034;DHT22;3558;53.176;10.412;2023-11-21T05:14:09;13.70;90.00
7034;DHT22;3558;53.176;10.412;2023-11-21T05:16:34;13.70;89.90
7034;DHT22;3558;53.176;10.412;2023-11-21T05:19:00;13.80;90.00
7034;DHT22;3558;53.176;10.412;2023-11-21T05:21:27;13.70;89.90
7034;DHT22;3558;53.176;10.412;2023-11-21T05:23:52;13.60;89.80
7034;DHT22;3558;53.176;10.412;2023-11-21T05:26:18;13.70;89.80
7034;DHT22;3558;53.176;10.412;2023-11-21T05:28:43;13.70;89.80
7034;DHT22;3558;53.176;10.412;2023-11-21T05:31:09;13.70;90.10
7034;DHT22;3558;53.176;10.412;2023-11-21T05:33:36;13.60;89.80
7034;DHT22;3558;53.176;10.412;2023-11-21T05:36:01;13.60;89.80
7034;DHT22;3558;53.176;10.412;2023-11-21T05:38:27;13.60;89.70
7034;DHT22;3558;53.176;10.412;2023-11-21T05:40:52;13.60;89.60
7034;DHT22;3558;53.176;10.412;2023-11-21T05:43:18;13.60;89.60
7034;DHT22;3558;53.176;10.412;2023-11-21T05:45:43;13.60;89.60
7034;DHT22;3558;53.176;10.412;2023-11-21T05:48:09;13.60;89.70
7034;DHT22;3558;53.176;10.412;2023-11-21T05:50:34;13.60;89.60
7034;DHT22;3558;53.176;10.412;2023-11-21T05:53:00;13.50;89.60
7034;DHT22;3558;53.176;10.412;2023-11-21T05:55:25;13.50;89.60
7034;DHT22;3558;53.176;10.412;2023-11-21T05:57:51;13.50;89.60
7034;DHT22;3558;53.176;10.412;2023-11-21T06:00:17;13.50;89.50
7034;DHT22;3558;53.176;10.412;2023-11-21T06:02:46;13.50;89.50
7034;DHT22;3558;53.176;10.412;2023-11-21T06:05:11;13.50;89.50
7034;DHT22;3558;53.176;10.412;2023-11-21T06:07:37;13.50;89.40
7034;DHT22;3558;53.176;10.412;2023-11-21T06:10:04;13.40;89.30
7034;DHT22;3558;53.176;10.412;2023-11-21T06:12:37;13.50;89.40
7034;DHT22;3558;53.176;10.412;2023-11-21T06:15:03;13.40;89.30
7034;DHT22;3558;53.176;10.412;2023-11-21T06:17:31;13.40;89.30
7034;DHT22;3558;53.176;10.412;2023-11-21T06:19:57;13.40;89.30
7034;DHT22;3558;53.176;10.412;2023-11-21T06:22:22;13.40;89.30
7034;DHT22;3558;53.176;10.412;2023-11-21T06:24:47;13.40;89.20
7034;DHT22;3558;53.176;10.412;2023-11-21T06:27:13;13.40;89.20
7034;DHT22;3558;53.176;10.412;2023-11-21T06:29:38;13.40;89.20
7034;DHT22;3558;53.176;10.412;2023-11-21T06:32:04;13.40;89.10
7034;DHT22;3558;53.176;10.412;2023-11-21T06:34:30;13.30;89.10
7034;DHT22;3558;53.176;10.412;2023-11-21T06:36:56;13.30;89.10
7034;DHT22;3558;53.176;10.412;2023-11-21T06:39:22;13.30;89.00
7034;DHT22;3558;53.176;10.412;2023-11-21T06:41:49;13.30;89.00
7034;DHT22;3558;53.176;10.412;2023-11-21T06:44:15;13.30;88.90
7034;DHT22;3558;53.176;10.412;2023-11-21T06:46:40;13.30;88.90
7034;DHT22;3558;53.176;10.412;2023-11-21T06:49:08;13.30;89.00
7034;DHT22;3558;53.176;10.412;2023-11-21T06:51:33;13.30;89.00
7034;DHT22;3558;53.176;10.412;2023-11-21T06:53:59;13.30;88.90
7034;DHT22;3558;53.176;10.412;2023-11-21T06:56:24;13.20;88.90
7034;DHT22;3558;53.176;10.412;2023-11-21T06:58:50;13.20;88.80
7034;DHT22;3558;53.176;10.412;2023-11-21T07:01:19;13.20;88.80
7034;DHT22;3558;53.176;10.412;2023-11-21T07:03:44;13.20;88.90
7034;DHT22;3558;53.176;10.412;2023-11-21T07:06:10;13.20;88.80
7034;DHT22;3558;53.176;10.412;2023-11-21T07:08:37;13.20;88.80
7034;DHT22;3558;53.176;10.412;2023-11-21T07:11:05;13.20;88.90
7034;DHT22;3558;53.176;10.412;2023-11-21T07:13:31;13.20;88.90
7034;DHT22;3558;53.176;10.412;2023-11-21T07:15:58;13.20;88.90
7034;DHT22;3558;53.176;10.412;2023-11-21T07:18:24;13.10;88.90
7034;DHT22;3558;53.176;10.412;2023-11-21T07:20:50;13.10;88.90
7034;DHT22;3558;53.176;10.412;2023-11-21T07:23:15;13.20;88.90
7034;DHT22;3558;53.176;10.412;2023-11-21T07:25:41;13.10;88.80
7034;DHT22;3558;53.176;10.412;2023-11-21T07:28:08;13.10;88.80
7034;DHT22;3558;53.176;10.412;2023-11-21T07:30:34;13.10;88.90
7034;DHT22;3558;53.176;10.412;2023-11-21T07:32:59;13.10;88.90
7034;DHT22;3558;53.176;10.412;2023-11-21T07:35:25;13.10;89.40
7034;DHT22;3558;53.176;10.412;2023-11-21T07:37:50;13.10;88.90
7034;DHT22;3558;53.176;10.412;2023-11-21T07:40:16;13.10;88.80
7034;DHT22;3558;53.176;10.412;2023-11-21T07:42:42;13.10;88.90
7034;DHT22;3558;53.176;10.412;2023-11-21T07:45:08;13.00;88.80
7034;DHT22;3558;53.176;10.412;2023-11-21T07:47:34;13.10;88.80
7034;DHT22;3558;53.176;10.412;2023-11-21T07:50:00;13.00;88.70
7034;DHT22;3558;53.176;10.412;2023-11-21T07:52:25;13.10;88.90
7034;DHT22;3558;53.176;10.412;2023-11-21T07:54:51;13.10;88.90
7034;DHT22;3558;53.176;10.412;2023-11-21T07:57:16;13.00;88.90
7034;DHT22;3558;53.176;10.412;2023-11-21T07:59:42;13.00;88.90
7034;DHT22;3558;53.176;10.412;2023-11-21T08:02:07;13.00;88.90
7034;DHT22;3558;53.176;10.412;2023-11-21T08:04:33;13.00;88.90
7034;DHT22;3558;53.176;10.412;2023-11-21T08:07:01;13.00;88.90
7034;DHT22;3558;53.176;10.412;2023-11-21T08:09:26;13.00;88.90
7034;DHT22;3558;53.176;10.412;2023-11-21T08:11:52;13.00;88.90
7034;DHT22;3558;53.176;10.412;2023-11-21T08:14:18;13.00;88.90
7034;DHT22;3558;53.176;10.412;2023-11-21T08:16:44;13.00;89.00
7034;DHT22;3558;53.176;10.412;2023-11-21T08:19:10;13.00;89.00
7034;DHT22;3558;53.176;10.412;2023-11-21T08:21:36;13.00;88.90
7034;DHT22;3558;53.176;10.412;2023-11-21T08:24:03;13.00;88.90
7034;DHT22;3558;53.176;10.412;2023-11-21T08:26:29;13.00;88.90
7034;DHT22;3558;53.176;10.412;2023-11-21T08:28:55;13.00;89.00
7034;DHT22;3558;53.176;10.412;2023-11-21T08:31:25;13.00;88.90
7034;DHT22;3558;53.176;10.412;2023-11-21T08:33:51;13.00;89.00
7034;DHT22;3558;53.176;10.412;2023-11-21T08:36:16;13.00;88.90
7034;DHT22;3558;53.176;10.412;2023-11-21T08:38:42;13.00;89.00
7034;DHT22;3558;53.176;10.412;2023-11-21T08:41:07;13.00;89.00
7034;DHT22;3558;53.176;10.412;2023-11-21T08:43:36;13.00;89.00
7034;DHT22;3558;53.176;10.412;2023-11-21T08:46:05;13.00;89.10
7034;DHT22;3558;53.176;10.412;2023-11-21T08:48:31;13.00;89.10
7034;DHT22;3558;53.176;10.412;2023-11-21T08:50:56;13.00;89.10
7034;DHT22;3558;53.176;10.412;2023-11-21T08:53:22;13.00;89.10
7034;DHT22;3558;53.176;10.412;2023-11-21T08:55:48;13.10;89.20
7034;DHT22;3558;53.176;10.412;2023-11-21T08:58:15;13.00;89.20
7034;DHT22;3558;53.176;10.412;2023-11-21T09:00:41;13.00;89.20
7034;DHT22;3558;53.176;10.412;2023-11-21T09:03:06;13.00;89.20
7034;DHT22;3558;53.176;10.412;2023-11-21T09:05:37;13.00;89.30
7034;DHT22;3558;53.176;10.412;2023-11-21T09:08:02;13.00;89.20
7034;DHT22;3558;53.176;10.412;2023-11-21T09:10:28;13.00;89.30
7034;DHT22;3558;53.176;10.412;2023-11-21T09:12:53;13.00;89.30
7034;DHT22;3558;53.176;10.412;2023-11-21T09:15:19;13.00;89.30
7034;DHT22;3558;53.176;10.412;2023-11-21T09:17:45;13.00;89.20
7034;DHT22;3558;53.176;10.412;2023-11-21T09:20:11;13.00;89.30
7034;DHT22;3558;53.176;10.412;2023-11-21T09:22:37;13.00;89.30
7034;DHT22;3558;53.176;10.412;2023-11-21T09:25:02;13.00;89.30
7034;DHT22;3558;53.176;10.412;2023-11-21T09:27:31;13.10;89.40
7034;DHT22;3558;53.176;10.412;2023-11-21T09:29:56;13.10;89.50
7034;DHT22;3558;53.176;10.412;2023-11-21T09:32:23;13.10;89.50
7034;DHT22;3558;53.176;10.412;2023-11-21T09:34:49;13.00;89.40
7034;DHT22;3558;53.176;10.412;2023-11-21T09:37:15;13.10;89.50
7034;DHT22;3558;53.176;10.412;2023-11-21T09:39:41;13.10;89.50
7034;DHT22;3558;53.176;10.412;2023-11-21T09:42:12;13.10;89.50
7034;DHT22;3558;53.176;10.412;2023-11-21T09:44:54;13.10;89.50
7034;DHT22;3558;53.176;10.412;2023-11-21T09:47:23;13.10;89.50
7034;DHT22;3558;53.176;10.412;2023-11-21T09:49:48;13.10;89.60
7034;DHT22;3558;53.176;10.412;2023-11-21T09:52:25;13.10;89.40
7034;DHT22;3558;53.176;10.412;2023-11-21T09:54:52;13.10;89.50
7034;DHT22;3558;53.176;10.412;2023-11-21T09:57:19;13.20;89.50
7034;DHT22;3558;53.176;10.412;2023-11-21T09:59:46;13.20;89.50
7034;DHT22;3558;53.176;10.412;2023-11-21T10:02:17;13.20;89.60
7034;DHT22;3558;53.176;10.412;2023-11-21T10:04:44;13.20;89.70
7034;DHT22;3558;53.176;10.412;2023-11-21T10:07:11;13.20;89.70
7034;DHT22;3558;53.176;10.412;2023-11-21T10:09:37;13.20;89.60
7034;DHT22;3558;53.176;10.412;2023-11-21T10:12:04;13.10;90.00
7034;DHT22;3558;53.176;10.412;2023-11-21T10:14:34;13.20;89.50
7034;DHT22;3558;53.176;10.412;2023-11-21T10:17:00;13.20;89.60
7034;DHT22;3558;53.176;10.412;2023-11-21T10:19:28;13.20;89.60
7034;DHT22;3558;53.176;10.412;2023-11-21T10:21:54;13.20;89.70
7034;DHT22;3558;53.176;10.412;2023-11-21T10:24:20;13.20;89.80
7034;DHT22;3558;53.176;10.412;2023-11-21T10:26:45;13.30;89.80
7034;DHT22;3558;53.176;10.412;2023-11-21T10:29:14;13.30;89.80
7034;DHT22;3558;53.176;10.412;2023-11-21T10:31:42;13.10;89.70
7034;DHT22;3558;53.176;10.412;2023-11-21T10:34:14;13.30;89.80
7034;DHT22;3558;53.176;10.412;2023-11-21T10:36:40;13.30;89.70
7034;DHT22;3558;53.176;10.412;2023-11-21T10:39:06;13.30;89.70
7034;DHT22;3558;53.176;10.412;2023-11-21T10:41:32;13.30;89.70
7034;DHT22;3558;53.176;10.412;2023-11-21T10:43:57;13.30;89.80
7034;DHT22;3558;53.176;10.412;2023-11-21T10:46:23;13.30;89.80
7034;DHT22;3558;53.176;10.412;2023-11-21T10:48:54;13.30;89.80
7034;DHT22;3558;53.176;10.412;2023-11-21T10:51:21;13.40;90.00
7034;DHT22;3558;53.176;10.412;2023-11-21T10:53:47;13.30;89.90
7034;DHT22;3558;53.176;10.412;2023-11-21T10:56:14;13.40;90.00
7034;DHT22;3558;53.176;10.412;2023-11-21T10:58:45;13.40;89.90
7034;DHT22;3558;53.176;10.412;2023-11-21T11:01:11;13.40;89.90
7034;DHT22;3558;53.176;10.412;2023-11-21T11:03:39;13.40;90.10
7034;DHT22;3558;53.176;10.412;2023-11-21T11:06:06;13.50;90.00
7034;DHT22;3558;53.176;10.412;2023-11-21T11:08:37;13.40;90.00
7034;DHT22;3558;53.176;10.412;2023-11-21T11:11:04;13.40;90.00
7034;DHT22;3558;53.176;10.412;2023-11-21T11:13:30;13.40;90.00
7034;DHT22;3558;53.176;10.412;2023-11-21T11:15:58;13.40;90.00
7034;DHT22;3558;53.176;10.412;2023-11-21T11:18:28;13.40;90.10
7034;DHT22;3558;53.176;10.412;2023-11-21T11:21:00;13.50;90.10
7034;DHT22;3558;53.176;10.412;2023-11-21T11:23:53;13.50;90.10
7034;DHT22;3558;53.176;10.412;2023-11-21T11:29:41;13.50;90.10
7034;DHT22;3558;53.176;10.412;2023-11-21T11:32:21;13.50;90.10
7034;DHT22;3558;53.176;10.412;2023-11-21T11:34:59;13.50;90.00
7034;DHT22;3558;53.176;10.412;2023-11-21T11:37:26;13.50;90.00
7034;DHT22;3558;53.176;10.412;2023-11-21T11:39:52;13.50;90.00
7034;DHT22;3558;53.176;10.412;2023-11-21T11:42:21;13.60;90.00
7034;DHT22;3558;53.176;10.412;2023-11-21T11:44:48;13.60;90.00
7034;DHT22;3558;53.176;10.412;2023-11-21T11:50:08;13.50;90.00
7034;DHT22;3558;53.176;10.412;2023-11-21T11:52:40;13.50;90.00
7034;DHT22;3558;53.176;10.412;2023-11-21T11:55:09;13.60;90.20
7034;DHT22;3558;53.176;10.412;2023-11-21T11:57:35;13.60;90.00
7034;DHT22;3558;53.176;10.412;2023-11-21T12:02:35;13.60;90.00
7034;DHT22;3558;53.176;10.412;2023-11-21T12:05:08;13.60;90.00
7034;DHT22;3558;53.176;10.412;2023-11-21T12:07:48;13.60;90.00
7034;DHT22;3558;53.176;10.412;2023-11-21T12:10:19;13.60;89.80
7034;DHT22;3558;53.176;10.412;2023-11-21T12:12:49;13.60;89.80
7034;DHT22;3558;53.176;10.412;2023-11-21T12:15:15;13.60;89.80
7034;DHT22;3558;53.176;10.412;2023-11-21T12:17:42;13.60;89.90
7034;DHT22;3558;53.176;10.412;2023-11-21T12:20:09;13.60;89.80
7034;DHT22;3558;53.176;10.412;2023-11-21T12:22:44;13.60;89.80
7034;DHT22;3558;53.176;10.412;2023-11-21T12:25:10;13.60;89.70
7034;DHT22;3558;53.176;10.412;2023-11-21T12:27:38;13.60;89.70
7034;DHT22;3558;53.176;10.412;2023-11-21T12:30:04;13.50;89.60
7034;DHT22;3558;53.176;10.412;2023-11-21T12:32:30;13.50;89.60
7034;DHT22;3558;53.176;10.412;2023-11-21T12:34:55;13.50;89.50
7034;DHT22;3558;53.176;10.412;2023-11-21T12:37:21;13.50;89.50
7034;DHT22;3558;53.176;10.412;2023-11-21T12:39:47;13.50;89.50
7034;DHT22;3558;53.176;10.412;2023-11-21T12:42:12;13.50;89.50
7034;DHT22;3558;53.176;10.412;2023-11-21T12:44:39;13.50;89.50
7034;DHT22;3558;53.176;10.412;2023-11-21T12:47:06;13.50;89.60
7034;DHT22;3558;53.176;10.412;2023-11-21T12:49:33;13.50;89.60
7034;DHT22;3558;53.176;10.412;2023-11-21T12:51:59;13.50;89.40
7034;DHT22;3558;53.176;10.412;2023-11-21T12:54:24;13.40;89.30
7034;DHT22;3558;53.176;10.412;2023-11-21T12:56:50;13.40;89.30
7034;DHT22;3558;53.176;10.412;2023-11-21T12:59:15;13.50;89.50
7034;DHT22;3558;53.176;10.412;2023-11-21T13:01:43;13.40;89.40
7034;DHT22;3558;53.176;10.412;2023-11-21T13:04:08;13.50;89.30
7034;DHT22;3558;53.176;10.412;2023-11-21T13:06:36;13.40;89.10
7034;DHT22;3558;53.176;10.412;2023-11-21T13:09:07;13.40;89.00
7034;DHT22;3558;53.176;10.412;2023-11-21T13:11:36;13.40;89.10
7034;DHT22;3558;53.176;10.412;2023-11-21T13:14:02;13.40;89.20
7034;DHT22;3558;53.176;10.412;2023-11-21T13:16:28;13.40;89.20
7034;DHT22;3558;53.176;10.412;2023-11-21T13:18:55;13.40;89.20
7034;DHT22;3558;53.176;10.412;2023-11-21T13:21:21;13.40;89.20
7034;DHT22;3558;53.176;10.412;2023-11-21T13:23:47;13.40;89.10
7034;DHT22;3558;53.176;10.412;2023-11-21T13:26:15;13.40;89.10
7034;DHT22;3558;53.176;10.412;2023-11-21T13:28:41;13.40;89.00
7034;DHT22;3558;53.176;10.412;2023-11-21T13:31:11;13.40;89.00
7034;DHT22;3558;53.176;10.412;2023-11-21T13:33:56;13.40;88.90
7034;DHT22;3558;53.176;10.412;2023-11-21T13:36:24;13.40;89.00
7034;DHT22;3558;53.176;10.412;2023-11-21T13:38:50;13.40;89.00
7034;DHT22;3558;53.176;10.412;2023-11-21T13:41:18;13.40;89.00
7034;DHT22;3558;53.176;10.412;2023-11-21T13:43:44;13.30;88.90
7034;DHT22;3558;53.176;10.412;2023-11-21T13:46:18;13.30;88.80
7034;DHT22;3558;53.176;10.412;2023-11-21T13:48:47;13.30;88.80
7034;DHT22;3558;53.176;10.412;2023-11-21T13:51:19;13.30;88.80
7034;DHT22;3558;53.176;10.412;2023-11-21T13:53:47;13.30;88.70
7034;DHT22;3558;53.176;10.412;2023-11-21T13:56:17;13.30;88.60
7034;DHT22;3558;53.176;10.412;2023-11-21T13:58:49;13.30;88.60
7034;DHT22;3558;53.176;10.412;2023-11-21T14:01:18;13.30;88.60
7034;DHT22;3558;53.176;10.412;2023-11-21T14:03:50;13.30;88.60
7034;DHT22;3558;53.176;10.412;2023-11-21T14:06:22;13.20;88.70
7034;DHT22;3558;53.176;10.412;2023-11-21T14:08:52;13.20;89.20
7034;DHT22;3558;53.176;10.412;2023-11-21T14:11:22;13.20;88.50
7034;DHT22;3558;53.176;10.412;2023-11-21T14:13:47;13.20;88.50
7034;DHT22;3558;53.176;10.412;2023-11-21T14:16:14;13.20;88.40
7034;DHT22;3558;53.176;10.412;2023-11-21T14:18:40;13.20;88.40
7034;DHT22;3558;53.176;10.412;2023-11-21T14:21:18;13.20;88.40
7034;DHT22;3558;53.176;10.412;2023-11-21T14:23:43;13.20;88.40
7034;DHT22;3558;53.176;10.412;2023-11-21T14:26:11;13.10;88.30
7034;DHT22;3558;53.176;10.412;2023-11-21T14:28:39;13.20;88.30
7034;DHT22;3558;53.176;10.412;2023-11-21T14:31:05;13.10;88.30
7034;DHT22;3558;53.176;10.412;2023-11-21T14:33:30;13.10;88.30
7034;DHT22;3558;53.176;10.412;2023-11-21T14:35:56;13.10;88.30
7034;DHT22;3558;53.176;10.412;2023-11-21T14:38:23;13.10;88.30
7034;DHT22;3558;53.176;10.412;2023-11-21T14:40:48;13.10;88.20
7034;DHT22;3558;53.176;10.412;2023-11-21T14:43:14;13.10;88.20
7034;DHT22;3558;53.176;10.412;2023-11-21T14:45:41;13.10;88.20
7034;DHT22;3558;53.176;10.412;2023-11-21T14:48:06;13.10;88.20
7034;DHT22;3558;53.176;10.412;2023-11-21T14:50:34;13.10;88.20
7034;DHT22;3558;53.176;10.412;2023-11-21T14:53:35;13.10;88.10
7034;DHT22;3558;53.176;10.412;2023-11-21T14:56:22;13.10;88.10
7034;DHT22;3558;53.176;10.412;2023-11-21T14:58:57;13.10;88.00
7034;DHT22;3558;53.176;10.412;2023-11-21T15:01:23;13.10;88.00
7034;DHT22;3558;53.176;10.412;2023-11-21T15:04:07;13.10;88.00
7034;DHT22;3558;53.176;10.412;2023-11-21T15:06:40;13.00;87.90
7034;DHT22;3558;53.176;10.412;2023-11-21T15:09:08;13.00;87.90
7034;DHT22;3558;53.176;10.412;2023-11-21T15:11:34;13.00;87.90
7034;DHT22;3558;53.176;10.412;2023-11-21T15:14:00;13.00;87.80
7034;DHT22;3558;53.176;10.412;2023-11-21T15:16:26;13.00;87.80
7034;DHT22;3558;53.176;10.412;2023-11-21T15:18:55;13.00;87.80
7034;DHT22;3558;53.176;10.412;2023-11-21T15:21:20;13.00;87.80
7034;DHT22;3558;53.176;10.412;2023-11-21T15:23:47;13.00;88.30
7034;DHT22;3558;53.176;10.412;2023-11-21T15:26:13;13.00;87.80
7034;DHT22;3558;53.176;10.412;2023-11-21T15:28:39;12.90;87.80
7034;DHT22;3558;53.176;10.412;2023-11-21T15:31:04;12.90;87.70
7034;DHT22;3558;53.176;10.412;2023-11-21T15:33:30;12.90;87.80
7034;DHT22;3558;53.176;10.412;2023-11-21T15:35:56;12.90;87.80
7034;DHT22;3558;53.176;10.412;2023-11-21T15:38:23;12.90;88.30
7034;DHT22;3558;53.176;10.412;2023-11-21T15:40:49;12.90;87.80
7034;DHT22;3558;53.176;10.412;2023-11-21T15:43:15;12.90;87.80
7034;DHT22;3558;53.176;10.412;2023-11-21T15:45:41;12.90;87.80
7034;DHT22;3558;53.176;10.412;2023-11-21T15:48:06;12.80;87.60
7034;DHT22;3558;53.176;10.412;2023-11-21T15:50:32;12.90;87.70
7034;DHT22;3558;53.176;10.412;2023-11-21T15:52:57;12.80;87.60
7034;DHT22;3558;53.176;10.412;2023-11-21T15:55:25;12.80;87.60
7034;DHT22;3558;53.176;10.412;2023-11-21T15:57:51;12.80;87.70
7034;DHT22;3558;53.176;10.412;2023-11-21T16:00:16;12.80;87.70
7034;DHT22;3558;53.176;10.412;2023-11-21T16:02:45;12.80;87.70
7034;DHT22;3558;53.176;10.412;2023-11-21T16:05:11;12.80;87.70
7034;DHT22;3558;53.176;10.412;2023-11-21T16:07:40;12.70;87.60
7034;DHT22;3558;53.176;10.412;2023-11-21T16:10:07;12.70;87.70
7034;DHT22;3558;53.176;10.412;2023-11-21T16:12:36;12.70;87.50
7034;DHT22;3558;53.176;10.412;2023-11-21T16:15:02;12.70;87.50
7034;DHT22;3558;53.176;10.412;2023-11-21T16:17:33;12.70;87.40
7034;DHT22;3558;53.176;10.412;2023-11-21T16:19:59;12.70;87.40
7034;DHT22;3558;53.176;10.412;2023-11-21T16:22:25;12.70;87.40
7034;DHT22;3558;53.176;10.412;2023-11-21T16:24:52;12.70;87.20
7034;DHT22;3558;53.176;10.412;2023-11-21T16:27:18;12.70;87.30
7034;DHT22;3558;53.176;10.412;2023-11-21T16:29:44;12.70;87.30
7034;DHT22;3558;53.176;10.412;2023-11-21T16:32:10;12.60;87.20
7034;DHT22;3558;53.176;10.412;2023-11-21T16:34:37;12.60;87.10
7034;DHT22;3558;53.176;10.412;2023-11-21T16:37:04;12.60;87.10
7034;DHT22;3558;53.176;10.412;2023-11-21T16:39:30;12.50;87.10
7034;DHT22;3558;53.176;10.412;2023-11-21T16:41:55;12.50;87.10
7034;DHT22;3558;53.176;10.412;2023-11-21T16:44:21;12.60;87.10
7034;DHT22;3558;53.176;10.412;2023-11-21T16:46:48;12.50;87.10
7034;DHT22;3558;53.176;10.412;2023-11-21T16:49:16;12.60;87.10
7034;DHT22;3558;53.176;10.412;2023-11-21T16:51:44;12.60;87.10
7034;DHT22;3558;53.176;10.412;2023-11-21T16:54:10;12.60;87.10
7034;DHT22;3558;53.176;10.412;2023-11-21T16:56:35;12.50;87.10
7034;DHT22;3558;53.176;10.412;2023-11-21T16:59:01;12.50;87.00
7034;DHT22;3558;53.176;10.412;2023-11-21T17:01:27;12.50;87.10
7034;DHT22;3558;53.176;10.412;2023-11-21T17:03:58;12.50;87.10
7034;DHT22;3558;53.176;10.412;2023-11-21T17:06:24;12.50;87.00
7034;DHT22;3558;53.176;10.412;2023-11-21T17:08:54;12.50;87.00
7034;DHT22;3558;53.176;10.412;2023-11-21T17:11:20;12.50;86.90
7034;DHT22;3558;53.176;10.412;2023-11-21T17:13:46;12.40;86.90
7034;DHT22;3558;53.176;10.412;2023-11-21T17:16:12;12.40;86.90
7034;DHT22;3558;53.176;10.412;2023-11-21T17:18:37;12.40;86.80
7034;DHT22;3558;53.176;10.412;2023-11-21T17:21:03;12.40;86.80
7034;DHT22;3558;53.176;10.412;2023-11-21T17:23:29;12.40;86.80
7034;DHT22;3558;53.176;10.412;2023-11-21T17:25:55;12.40;86.70
7034;DHT22;3558;53.176;10.412;2023-11-21T17:28:21;12.40;86.70
7034;DHT22;3558;53.176;10.412;2023-11-21T17:30:47;12.30;86.70
7034;DHT22;3558;53.176;10.412;2023-11-21T17:33:12;12.30;86.60
7034;DHT22;3558;53.176;10.412;2023-11-21T17:35:40;12.40;86.70
7034;DHT22;3558;53.176;10.412;2023-11-21T17:38:07;12.30;86.50
7034;DHT22;3558;53.176;10.412;2023-11-21T17:40:33;12.30;86.50
7034;DHT22;3558;53.176;10.412;2023-11-21T17:43:00;12.20;86.30
7034;DHT22;3558;53.176;10.412;2023-11-21T17:45:25;12.20;86.30
7034;DHT22;3558;53.176;10.412;2023-11-21T17:47:51;12.20;86.30
7034;DHT22;3558;53.176;10.412;2023-11-21T17:50:16;12.20;86.80
7034;DHT22;3558;53.176;10.412;2023-11-21T17:52:42;12.20;86.40
7034;DHT22;3558;53.176;10.412;2023-11-21T17:55:10;12.20;86.40
7034;DHT22;3558;53.176;10.412;2023-11-21T17:57:35;12.20;86.50
7034;DHT22;3558;53.176;10.412;2023-11-21T18:00:02;12.20;86.30
7034;DHT22;3558;53.176;10.412;2023-11-21T18:02:31;12.10;86.30
7034;DHT22;3558;53.176;10.412;2023-11-21T18:04:57;12.10;86.20
7034;DHT22;3558;53.176;10.412;2023-11-21T18:07:25;12.10;86.20
7034;DHT22;3558;53.176;10.412;2023-11-21T18:09:51;12.10;86.20
7034;DHT22;3558;53.176;10.412;2023-11-21T18:12:16;12.10;86.20
7034;DHT22;3558;53.176;10.412;2023-11-21T18:14:44;12.10;86.30
7034;DHT22;3558;53.176;10.412;2023-11-21T18:17:13;12.10;86.20
7034;DHT22;3558;53.176;10.412;2023-11-21T18:19:42;12.10;86.10
7034;DHT22;3558;53.176;10.412;2023-11-21T18:22:08;12.10;86.10
7034;DHT22;3558;53.176;10.412;2023-11-21T18:24:33;12.10;86.00
7034;DHT22;3558;53.176;10.412;2023-11-21T18:26:59;12.00;85.90
7034;DHT22;3558;53.176;10.412;2023-11-21T18:29:24;12.00;85.80
7034;DHT22;3558;53.176;10.412;2023-11-21T18:31:51;12.00;85.70
7034;DHT22;3558;53.176;10.412;2023-11-21T18:34:17;12.00;85.70
7034;DHT22;3558;53.176;10.412;2023-11-21T18:36:43;12.00;85.70
7034;DHT22;3558;53.176;10.412;2023-11-21T18:39:10;11.90;85.60
7034;DHT22;3558;53.176;10.412;2023-11-21T18:41:41;12.00;85.60
7034;DHT22;3558;53.176;10.412;2023-11-21T18:44:07;11.90;85.50
7034;DHT22;3558;53.176;10.412;2023-11-21T18:46:39;11.90;85.50
7034;DHT22;3558;53.176;10.412;2023-11-21T18:49:06;11.90;86.00
7034;DHT22;3558;53.176;10.412;2023-11-21T18:51:32;11.90;86.30
7034;DHT22;3558;53.176;10.412;2023-11-21T18:53:57;11.80;87.00
7034;DHT22;3558;53.176;10.412;2023-11-21T18:56:23;11.90;87.20
7034;DHT22;3558;53.176;10.412;2023-11-21T18:58:50;11.90;86.80
7034;DHT22;3558;53.176;10.412;2023-11-21T19:01:26;11.90;86.50
7034;DHT22;3558;53.176;10.412;2023-11-21T19:03:52;11.90;86.20
7034;DHT22;3558;53.176;10.412;2023-11-21T19:06:19;11.90;86.00
7034;DHT22;3558;53.176;10.412;2023-11-21T19:08:44;11.80;85.80
7034;DHT22;3558;53.176;10.412;2023-11-21T19:11:10;11.80;85.80
7034;DHT22;3558;53.176;10.412;2023-11-21T19:13:36;11.80;85.80
7034;DHT22;3558;53.176;10.412;2023-11-21T19:16:02;11.80;85.70
7034;DHT22;3558;53.176;10.412;2023-11-21T19:18:28;11.80;85.70
7034;DHT22;3558;53.176;10.412;2023-11-21T19:20:54;11.80;85.70
7034;DHT22;3558;53.176;10.412;2023-11-21T19:23:19;11.80;85.70
7034;DHT22;3558;53.176;10.412;2023-11-21T19:25:45;11.80;85.60
7034;DHT22;3558;53.176;10.412;2023-11-21T19:28:11;11.80;85.60
7034;DHT22;3558;53.176;10.412;2023-11-21T19:30:37;11.80;85.50
7034;DHT22;3558;53.176;10.412;2023-11-21T19:33:05;11.80;85.50
7034;DHT22;3558;53.176;10.412;2023-11-21T19:35:31;11.80;85.50
7034;DHT22;3558;53.176;10.412;2023-11-21T19:38:01;11.70;85.40